Time;durP1;ratioP1;P1;durP2;ratioP2;P2;SDS_P1;SDS_P2;PMS_P1;PMS_P2;Temp;Humidity;BMP_temperature;BMP_pressure;BME280_temperature;BME280_humidity;BME280_pressure;Samples;Min_cycle;Max_cycle;Signal;HPM_P1;HPM_P2
2022/11/09 00:00:42;;;;;;;15.73;3.20;;;;;;;16.31;100.00;101460.47;2093993;28;20139;-72
2022/11/09 00:02:04;;;;;;;11.68;3.33;;;;;;;16.31;100.00;101463.13;2080176;28;20509;-72
2022/11/09 00:03:28;;;;;;;14.45;4.00;;;;;;;16.32;100.00;101463.16;2080783;28;20577;-72
2022/11/09 00:04:50;;;;;;;11.90;3.88;;;;;;;16.33;100.00;101453.38;2091409;28;20109;-71
2022/11/09 00:06:13;;;;;;;12.65;3.28;;;;;;;16.33;100.00;101461.38;2093922;28;20052;-72
2022/11/09 00:07:35;;;;;;;15.38;3.63;;;;;;;16.31;100.00;101456.03;2094051;28;20416;-72
2022/11/09 00:08:57;;;;;;;14.25;3.17;;;;;;;16.32;100.00;101454.25;2093783;28;20144;-72
2022/11/09 00:10:19;;;;;;;;;;;;;;;16.30;100.00;101448.03;2086082;28;20048;-72
2022/11/09 00:11:42;;;;;;;10.35;3.67;;;;;;;16.31;100.00;101450.72;2091412;28;19920;-72
2022/11/09 00:13:03;;;;;;;14.98;3.30;;;;;;;16.35;100.00;101447.16;2085649;28;20056;-72
2022/11/09 00:14:26;;;;;;;11.15;3.25;;;;;;;16.36;100.00;101437.38;2091247;28;20445;-72
2022/11/09 00:15:48;;;;;;;13.82;3.35;;;;;;;16.35;100.00;101438.28;2085635;28;20092;-72
2022/11/09 00:17:11;;;;;;;12.18;3.42;;;;;;;16.33;100.00;101432.06;2083065;28;20041;-72
2022/11/09 00:18:34;;;;;;;9.48;3.03;;;;;;;16.31;100.00;101437.38;2093823;28;20039;-73
2022/11/09 00:19:56;;;;;;;15.30;3.85;;;;;;;16.28;100.00;101437.34;2102053;28;20076;-72
2022/11/09 00:21:20;;;;;;;10.75;2.95;;;;;;;16.25;100.00;101440.03;2102071;28;20384;-71
2022/11/09 00:22:42;;;;;;;16.15;3.10;;;;;;;16.22;100.00;101425.78;2094179;28;20547;-72
2022/11/09 00:24:05;;;;;;;10.93;3.17;;;;;;;16.22;100.00;101436.44;2082897;28;20053;-72
2022/11/09 00:25:27;;;;;;;12.65;3.50;;;;;;;16.21;100.00;101427.56;2085560;28;20390;-71
2022/11/09 00:26:50;;;;;;;13.25;3.45;;;;;;;16.26;100.00;101430.25;2085283;28;20056;-71
2022/11/09 00:28:14;;;;;;;12.05;3.70;;;;;;;16.29;100.00;101430.25;2094480;28;20741;-72
2022/11/09 00:29:37;;;;;;;11.75;4.20;;;;;;;16.33;100.00;101419.63;2087972;28;20047;-71
2022/11/09 00:30:58;;;;;;;14.05;3.55;;;;;;;16.38;100.00;101424.97;2094043;28;20176;-72
2022/11/09 00:32:21;;;;;;;17.13;4.40;;;;;;;16.40;100.00;101422.31;2088907;28;20471;-71
2022/11/09 00:33:48;;;;;;;11.48;3.47;;;;;;;16.41;100.00;101416.09;2085238;28;20045;-72
2022/11/09 00:35:09;;;;;;;25.90;4.05;;;;;;;16.42;100.00;101418.75;2088209;28;20044;-72
2022/11/09 00:36:32;;;;;;;12.30;3.95;;;;;;;16.45;100.00;101421.44;2088732;28;20045;-70
2022/11/09 00:37:53;;;;;;;16.45;4.13;;;;;;;16.47;100.00;101414.34;2085411;28;20449;-71
2022/11/09 00:39:16;;;;;;;16.23;4.40;;;;;;;16.52;100.00;101427.66;2091024;28;20136;-71
2022/11/09 00:40:37;;;;;;;15.30;4.47;;;;;;;16.53;100.00;101424.13;2085191;28;20048;-71
2022/11/09 00:42:00;;;;;;;16.98;3.55;;;;;;;16.54;100.00;101410.75;2089135;28;20071;-71
2022/11/09 00:43:24;;;;;;;12.23;3.55;;;;;;;16.54;100.00;101418.75;2093956;28;20060;-71
2022/11/09 00:44:46;;;;;;;11.60;3.70;;;;;;;16.54;100.00;101417.91;2088380;28;20061;-70
2022/11/09 00:46:08;;;;;;;13.85;4.63;;;;;;;16.54;100.00;101415.25;2103566;28;20040;-71
2022/11/09 00:47:30;;;;;;;14.70;4.35;;;;;;;16.53;100.00;101421.44;2087805;28;20069;-71
2022/11/09 00:48:55;;;;;;;16.40;4.25;;;;;;;16.50;100.00;101416.09;2093713;28;20482;-71
2022/11/09 00:50:17;;;;;;;13.23;4.15;;;;;;;16.47;100.00;101416.13;2080719;28;20064;-71
2022/11/09 00:51:39;;;;;;;13.20;4.20;;;;;;;16.44;100.00;101419.66;2080425;28;20061;-71
2022/11/09 00:53:01;;;;;;;12.98;4.63;;;;;;;16.45;100.00;101428.53;2082751;28;20571;-71
2022/11/09 00:54:23;;;;;;;11.63;4.38;;;;;;;16.46;100.00;101428.56;2085093;28;20467;-71
2022/11/09 00:55:54;;;;;;;15.05;4.53;;;;;;;16.52;100.00;101427.66;2085797;28;20071;-71
2022/11/09 00:57:17;;;;;;;12.75;4.47;;;;;;;16.55;100.00;101433.88;2084941;28;20041;-71
2022/11/09 00:58:40;;;;;;;14.30;4.85;;;;;;;16.57;100.00;101426.78;2091253;28;20045;-72
2022/11/09 01:00:03;;;;;;;10.55;4.43;;;;;;;16.57;100.00;101423.22;2093748;28;20073;-70
2022/11/09 01:01:26;;;;;;;15.02;4.50;;;;;;;16.59;100.00;101435.69;2085295;28;20045;-71
2022/11/09 01:02:49;;;;;;;13.93;4.28;;;;;;;16.59;100.00;101433.00;2085457;28;20132;-71
2022/11/09 01:04:13;;;;;;;10.35;4.43;;;;;;;16.61;100.00;101430.34;2083244;28;20144;-71
2022/11/09 01:05:38;;;;;;;12.93;4.88;;;;;;;16.62;100.00;101425.03;2077226;28;20123;-72
2022/11/09 01:07:00;;;;;;;12.35;4.00;;;;;;;16.63;100.00;101433.94;2090053;28;20058;-72
2022/11/09 01:08:23;;;;;;;14.00;4.40;;;;;;;16.66;100.00;101431.28;2093427;28;20044;-71
2022/11/09 01:09:45;;;;;;;17.17;4.57;;;;;;;16.69;100.00;101426.81;2079799;28;20049;-71
2022/11/09 01:11:10;;;;;;;13.38;4.47;;;;;;;16.71;100.00;101406.41;2077259;28;20481;-71
2022/11/09 01:12:32;;;;;;;10.15;3.78;;;;;;;16.71;100.00;101414.41;2075220;28;20206;-72
2022/11/09 01:13:55;;;;;;;15.40;4.22;;;;;;;16.70;100.00;101415.28;2082632;28;20045;-71
2022/11/09 01:15:18;;;;;;;10.80;4.60;;;;;;;16.69;100.00;101416.16;2095982;28;20151;-72
2022/11/09 01:16:40;;;;;;;13.98;4.68;;;;;;;16.68;100.00;101422.38;2096380;28;20048;-72
2022/11/09 01:18:01;;;;;;;13.50;4.60;;;;;;;16.66;100.00;101417.94;2087774;28;20056;-72
2022/11/09 01:19:25;;;;;;;10.98;4.05;;;;;;;16.61;100.00;101409.94;2085261;28;20077;-72
2022/11/09 01:20:48;;;;;;;9.73;4.03;;;;;;;16.56;100.00;101414.34;2093979;28;20045;-71
2022/11/09 01:22:11;;;;;;;11.60;3.67;;;;;;;16.55;100.00;101417.88;2091839;28;20067;-72
2022/11/09 01:23:34;;;;;;;16.15;4.82;;;;;;;16.53;100.00;101414.34;2101739;28;20081;-73
2022/11/09 01:24:56;;;;;;;12.43;4.50;;;;;;;16.55;100.00;101409.00;2088059;28;20049;-72
2022/11/09 01:26:19;;;;;;;12.15;4.03;;;;;;;16.61;100.00;101412.59;2082663;28;20144;-72
2022/11/09 01:27:42;;;;;;;14.70;4.43;;;;;;;16.67;100.00;101404.59;2090914;28;20136;-72
2022/11/09 01:29:04;;;;;;;12.65;4.80;;;;;;;16.72;100.00;101402.84;2101858;28;20143;-72
2022/11/09 01:30:28;;;;;;;15.52;4.53;;;;;;;16.71;100.00;101403.72;2089603;28;20102;-72
2022/11/09 01:31:54;;;;;;;15.07;4.70;;;;;;;16.71;100.00;101398.41;2094291;28;20559;-72
2022/11/09 01:33:16;;;;;;;16.15;5.22;;;;;;;16.72;100.00;101408.19;2095028;28;20044;-72
2022/11/09 01:34:40;;;;;;;11.48;4.25;;;;;;;16.73;100.00;101401.97;2083850;28;20056;-72
2022/11/09 01:36:03;;;;;;;20.00;5.28;;;;;;;16.73;100.00;101396.63;2084667;28;20098;-72
2022/11/09 01:37:26;;;;;;;16.05;4.55;;;;;;;16.73;100.00;101396.63;2087040;28;20048;-72
2022/11/09 01:38:49;;;;;;;15.60;5.25;;;;;;;16.74;100.00;101397.50;2088252;28;21344;-73
2022/11/09 01:40:11;;;;;;;12.02;4.90;;;;;;;16.75;100.00;101388.59;2086959;28;20139;-72
2022/11/09 01:41:33;;;;;;;;;;;;;;;16.71;100.00;101386.84;2092813;28;20040;-72
2022/11/09 01:43:05;;;;;;;14.52;4.55;;;;;;;16.73;100.00;101391.31;2086701;28;19982;-72
2022/11/09 01:44:28;;;;;;;17.10;4.53;;;;;;;16.73;100.00;101396.63;2085415;28;20037;-72
2022/11/09 01:45:54;;;;;;;14.13;4.70;;;;;;;16.71;100.00;101397.50;2084538;28;20056;-72
2022/11/09 01:47:25;;;;;;;19.85;5.20;;;;;;;16.65;100.00;101389.50;2079674;28;20091;-72
2022/11/09 01:48:49;;;;;;;13.52;4.80;;;;;;;16.62;100.00;101385.06;2095927;28;20083;-72
2022/11/09 01:50:19;;;;;;;12.82;4.35;;;;;;;16.60;100.00;101397.50;2097525;28;20516;-72
2022/11/09 01:51:46;;;;;;;23.27;5.18;;;;;;;16.59;100.00;101403.69;2102299;28;20544;-72
2022/11/09 01:53:12;;;;;;;13.05;4.63;;;;;;;16.56;100.00;101406.34;2097600;28;20165;-72
2022/11/09 01:54:39;;;;;;;14.70;5.10;;;;;;;16.56;100.00;101408.09;2087042;28;20558;-71
2022/11/09 01:56:05;;;;;;;10.60;4.45;;;;;;;16.54;100.00;101409.91;2093992;28;20045;-72
2022/11/09 01:57:30;;;;;;;13.45;4.55;;;;;;;16.52;100.00;101407.22;2087638;28;20076;-72
2022/11/09 01:58:58;;;;;;;14.55;4.03;;;;;;;16.54;100.00;101413.44;2087373;28;20102;-72
2022/11/09 02:00:23;;;;;;;12.57;3.95;;;;;;;16.53;100.00;101411.69;2087707;28;20053;-72
2022/11/09 02:01:45;;;;;;;;;;;;;;;16.47;100.00;101419.66;2084343;28;20052;-72
2022/11/09 02:03:13;;;;;;;11.10;3.78;;;;;;;16.46;100.00;101412.56;2083334;28;20370;-72
2022/11/09 02:04:39;;;;;;;12.88;3.95;;;;;;;16.47;100.00;101421.44;2085310;28;20048;-72
2022/11/09 02:06:06;;;;;;;16.35;4.20;;;;;;;16.49;100.00;101420.53;2084618;28;20143;-72
2022/11/09 02:07:29;;;;;;;11.25;4.15;;;;;;;16.50;100.00;101422.31;2087163;28;20057;-72
2022/11/09 02:08:56;;;;;;;13.63;4.18;;;;;;;16.53;100.00;101424.13;2078354;28;20073;-72
2022/11/09 02:10:25;;;;;;;11.75;3.80;;;;;;;16.52;100.00;101423.22;2090701;28;20044;-72
2022/11/09 02:11:47;;;;;;;13.85;4.05;;;;;;;16.52;100.00;101428.56;2080577;28;20136;-72
2022/11/09 02:13:13;;;;;;;14.60;3.90;;;;;;;16.51;100.00;101432.09;2078410;28;20049;-72
2022/11/09 02:14:36;;;;;;;13.27;3.67;;;;;;;16.49;100.00;101430.31;2101355;28;20052;-72
2022/11/09 02:15:58;;;;;;;15.27;4.97;;;;;;;16.45;100.00;101429.44;2091556;28;20037;-72
2022/11/09 02:17:22;;;;;;;11.77;4.20;;;;;;;16.43;100.00;101422.31;2094720;28;20049;-72
2022/11/09 02:18:49;;;;;;;12.18;4.20;;;;;;;16.39;100.00;101436.53;2074607;28;20041;-72
2022/11/09 02:20:16;;;;;;;14.63;4.95;;;;;;;16.32;100.00;101433.84;2091667;28;20079;-72
2022/11/09 02:21:39;;;;;;;13.90;3.90;;;;;;;16.28;100.00;101431.13;2105755;28;20195;-72
2022/11/09 02:23:01;;;;;;;13.80;4.40;;;;;;;16.26;100.00;101424.94;2100712;28;20131;-72
2022/11/09 02:24:23;;;;;;;13.95;3.72;;;;;;;16.25;100.00;101423.16;2088948;28;20045;-72
2022/11/09 02:25:48;;;;;;;10.23;3.67;;;;;;;16.24;100.00;101426.69;2091846;28;20102;-72
2022/11/09 02:27:11;;;;;;;11.75;3.83;;;;;;;16.21;100.00;101424.91;2089185;28;20036;-72
2022/11/09 02:28:35;;;;;;;13.02;3.60;;;;;;;16.18;100.00;101419.59;2091955;28;20147;-72
2022/11/09 02:29:59;;;;;;;13.27;3.42;;;;;;;16.17;100.00;101425.78;2101003;28;20510;-72
2022/11/09 02:31:25;;;;;;;10.95;3.95;;;;;;;16.19;100.00;101424.03;2094930;28;20143;-72
2022/11/09 02:32:47;;;;;;;11.68;3.78;;;;;;;16.21;100.00;101416.91;2101356;28;20052;-72
2022/11/09 02:34:13;;;;;;;11.02;3.40;;;;;;;16.24;100.00;101432.03;2103083;28;20044;-72
2022/11/09 02:35:38;;;;;;;13.10;3.55;;;;;;;16.28;100.00;101420.47;2097253;28;20113;-72
2022/11/09 02:37:00;;;;;;;14.13;3.97;;;;;;;16.29;100.00;101430.25;2092187;28;20870;-72
2022/11/09 02:38:23;;;;;;;9.95;3.28;;;;;;;16.31;100.00;101420.50;2092169;28;20072;-72
2022/11/09 02:39:45;;;;;;;13.68;3.55;;;;;;;16.32;100.00;101422.28;2094447;28;20059;-72
2022/11/09 02:41:12;;;;;;;17.00;4.40;;;;;;;16.34;100.00;101424.06;2093625;28;20472;-72
2022/11/09 02:42:35;;;;;;;9.93;3.25;;;;;;;16.39;100.00;101432.09;2094962;28;20052;-72
2022/11/09 02:44:00;;;;;;;15.55;3.97;;;;;;;16.45;100.00;101428.53;2097258;28;20045;-72
2022/11/09 02:45:21;;;;;;;10.35;3.00;;;;;;;16.50;100.00;101421.44;2092525;28;20048;-72
2022/11/09 02:46:44;;;;;;;9.63;3.95;;;;;;;16.55;100.00;101428.53;2091736;28;20067;-72
2022/11/09 02:48:08;;;;;;;10.05;3.25;;;;;;;16.60;100.00;101417.94;2091934;28;20060;-72
2022/11/09 02:49:31;;;;;;;13.32;3.58;;;;;;;16.64;100.00;101425.94;2092577;28;20056;-72
2022/11/09 02:50:55;;;;;;;11.45;3.50;;;;;;;16.71;100.00;101426.84;2100224;28;20106;-72
2022/11/09 02:52:16;;;;;;;12.68;3.63;;;;;;;16.75;100.00;101423.28;2094974;28;20085;-72
2022/11/09 02:53:40;;;;;;;10.27;3.58;;;;;;;16.79;100.00;101424.19;2100101;28;20051;-72
2022/11/09 02:55:02;;;;;;;7.13;2.83;;;;;;;16.82;100.00;101427.72;2094671;28;20159;-73
2022/11/09 02:56:25;;;;;;;9.55;2.80;;;;;;;16.84;100.00;101425.97;2091781;28;20052;-72
2022/11/09 02:57:47;;;;;;;9.02;3.10;;;;;;;16.87;100.00;101430.41;2091674;28;20391;-72
2022/11/09 02:59:11;;;;;;;13.63;2.90;;;;;;;16.89;100.00;101423.28;2091566;28;20060;-72
2022/11/09 03:00:33;;;;;;;9.65;3.40;;;;;;;16.87;100.00;101419.75;2091806;28;20041;-72
2022/11/09 03:01:56;;;;;;;6.85;2.35;;;;;;;16.86;100.00;101424.19;2089357;28;20057;-72
2022/11/09 03:03:18;;;;;;;14.77;3.70;;;;;;;16.89;100.00;101425.94;2101147;28;20052;-72
2022/11/09 03:04:39;;;;;;;10.57;3.10;;;;;;;16.90;100.00;101417.97;2094468;28;20126;-72
2022/11/09 03:06:04;;;;;;;7.93;3.15;;;;;;;16.93;100.00;101422.41;2088810;28;20037;-72
2022/11/09 03:07:26;;;;;;;15.32;3.63;;;;;;;16.94;100.00;101419.72;2088869;28;20597;-72
2022/11/09 03:08:48;;;;;;;8.30;2.80;;;;;;;16.95;100.00;101418.84;2092248;28;20037;-72
2022/11/09 03:10:11;;;;;;;13.30;3.03;;;;;;;16.97;100.00;101421.53;2091638;28;20469;-72
2022/11/09 03:11:34;;;;;;;11.38;3.67;;;;;;;17.00;100.00;101424.19;2100234;28;20151;-72
2022/11/09 03:12:55;;;;;;;12.30;2.80;;;;;;;16.99;100.00;101423.31;2094386;28;20044;-72
2022/11/09 03:14:17;;;;;;;11.70;2.67;;;;;;;17.00;100.00;101425.06;2094380;28;20484;-72
2022/11/09 03:15:47;;;;;;;9.40;3.00;;;;;;;17.01;100.00;101415.28;2102048;28;20142;-72
2022/11/09 03:17:08;;;;;;;11.38;3.13;;;;;;;16.99;100.00;101417.09;2099558;28;20414;-72
2022/11/09 03:18:31;;;;;;;15.27;3.08;;;;;;;16.99;100.00;101419.75;2087981;28;20183;-72
2022/11/09 03:19:54;;;;;;;11.10;3.10;;;;;;;17.01;100.00;101418.84;2086033;28;20044;-72
2022/11/09 03:21:20;;;;;;;10.35;3.13;;;;;;;17.01;100.00;101413.50;2100299;28;20060;-72
2022/11/09 03:22:43;;;;;;;11.57;2.70;;;;;;;17.03;100.00;101417.06;2094778;28;20107;-72
2022/11/09 03:24:05;;;;;;;10.25;3.40;;;;;;;17.03;100.00;101416.19;2075302;28;20042;-72
2022/11/09 03:25:30;;;;;;;10.80;3.45;;;;;;;17.03;100.00;101418.84;2084126;28;20140;-72
2022/11/09 03:26:54;;;;;;;14.15;3.33;;;;;;;17.04;100.00;101425.97;2086239;28;20040;-72
2022/11/09 03:28:17;;;;;;;7.47;2.83;;;;;;;17.03;100.00;101418.84;2086115;28;20171;-72
2022/11/09 03:29:38;;;;;;;10.90;3.42;;;;;;;17.05;100.00;101433.97;2080130;28;20049;-72
2022/11/09 03:31:01;;;;;;;12.75;3.08;;;;;;;17.06;100.00;101426.88;2088660;28;20781;-71
2022/11/09 03:32:24;;;;;;;13.27;3.28;;;;;;;17.06;100.00;101425.09;2086093;28;20107;-72
2022/11/09 03:33:47;;;;;;;11.63;3.10;;;;;;;17.06;100.00;101433.09;2080234;28;20033;-72
2022/11/09 03:35:10;;;;;;;11.13;2.97;;;;;;;17.05;100.00;101425.97;2077709;28;20060;-73
2022/11/09 03:36:33;;;;;;;12.40;3.13;;;;;;;17.04;100.00;101437.53;2091515;28;20139;-72
2022/11/09 03:37:56;;;;;;;14.23;3.15;;;;;;;17.04;100.00;101433.97;2091346;28;20551;-73
2022/11/09 03:39:18;;;;;;;18.17;3.53;;;;;;;17.03;100.00;101432.19;2100420;28;20064;-72
2022/11/09 03:40:41;;;;;;;14.15;3.22;;;;;;;16.99;100.00;101428.66;2094283;28;20494;-72
2022/11/09 03:42:03;;;;;;;12.07;3.85;;;;;;;16.99;100.00;101427.75;2094024;28;20147;-72
2022/11/09 03:43:25;;;;;;;11.82;3.38;;;;;;;16.95;100.00;101436.63;2088521;28;20047;-72
2022/11/09 03:44:48;;;;;;;14.10;4.07;;;;;;;16.92;100.00;101424.19;2100035;28;20093;-72
2022/11/09 03:46:10;;;;;;;11.05;3.67;;;;;;;16.91;100.00;101426.84;2096836;28;20550;-72
2022/11/09 03:47:32;;;;;;;11.50;2.78;;;;;;;16.90;100.00;101422.41;2085940;28;20109;-72
2022/11/09 03:48:54;;;;;;;16.30;4.20;;;;;;;16.87;100.00;101428.63;2083122;28;20588;-72
2022/11/09 03:50:17;;;;;;;13.75;3.42;;;;;;;16.86;100.00;101425.97;2091306;28;20121;-72
2022/11/09 03:51:41;;;;;;;10.27;3.20;;;;;;;16.85;100.00;101426.84;2085937;28;20123;-72
2022/11/09 03:53:03;;;;;;;14.10;4.05;;;;;;;16.86;100.00;101426.88;2091291;28;20473;-72
2022/11/09 03:54:25;;;;;;;10.88;3.55;;;;;;;16.89;100.00;101424.19;2093007;28;20139;-71
2022/11/09 03:55:47;;;;;;;12.48;3.58;;;;;;;16.92;100.00;101423.31;2094070;28;20039;-72
2022/11/09 03:57:09;;;;;;;15.68;3.28;;;;;;;16.95;100.00;101424.19;2102185;28;20103;-72
2022/11/09 03:58:32;;;;;;;11.48;3.22;;;;;;;16.98;100.00;101420.63;2096478;28;20048;-72
2022/11/09 03:59:53;;;;;;;14.43;3.30;;;;;;;17.02;100.00;101428.63;2085796;28;20068;-72
2022/11/09 04:01:15;;;;;;;13.80;4.03;;;;;;;17.05;100.00;101414.41;2091438;28;20051;-72
2022/11/09 04:02:38;;;;;;;13.52;3.35;;;;;;;17.07;100.00;101413.50;2085646;28;20091;-72
2022/11/09 04:04:01;;;;;;;13.57;3.60;;;;;;;17.08;100.00;101412.63;2090737;28;20809;-72
2022/11/09 04:05:24;;;;;;;13.52;4.07;;;;;;;17.13;100.00;101420.63;2093984;28;20616;-72
2022/11/09 04:06:46;;;;;;;11.68;3.10;;;;;;;17.13;100.00;101418.81;2096603;28;20044;-72
2022/11/09 04:08:09;;;;;;;11.48;3.50;;;;;;;17.19;100.00;101422.41;2096433;28;20087;-72
2022/11/09 04:09:31;;;;;;;14.65;3.72;;;;;;;17.22;100.00;101417.94;2092588;28;20177;-72
2022/11/09 04:10:53;;;;;;;12.02;3.65;;;;;;;17.23;100.00;101422.41;2093772;28;20048;-72
2022/11/09 04:12:15;;;;;;;11.35;3.58;;;;;;;17.26;100.00;101430.41;2102165;28;20089;-72
2022/11/09 04:13:37;;;;;;;14.23;4.13;;;;;;;17.29;100.00;101422.38;2096295;28;20059;-71
2022/11/09 04:15:00;;;;;;;11.30;3.20;;;;;;;17.31;100.00;101417.06;2102121;28;20044;-72
2022/11/09 04:16:21;;;;;;;13.82;3.90;;;;;;;17.32;100.00;101414.38;2088425;28;20048;-71
2022/11/09 04:17:44;;;;;;;12.60;4.30;;;;;;;17.33;100.00;101420.59;2090923;28;20037;-72
2022/11/09 04:19:07;;;;;;;16.02;3.85;;;;;;;17.35;100.00;101426.81;2093882;28;20551;-73
2022/11/09 04:20:31;;;;;;;12.45;4.18;;;;;;;17.37;100.00;101428.59;2094075;28;20102;-71
2022/11/09 04:21:54;;;;;;;13.60;3.78;;;;;;;17.35;100.00;101425.03;2096945;28;20048;-72
2022/11/09 04:23:16;;;;;;;14.77;3.53;;;;;;;17.29;100.00;101425.06;2089804;28;20534;-72
2022/11/09 04:24:38;;;;;;;13.68;3.80;;;;;;;17.25;100.00;101433.06;2091406;28;20526;-71
2022/11/09 04:26:01;;;;;;;17.00;3.95;;;;;;;17.21;100.00;101431.28;2093399;28;20071;-72
2022/11/09 04:27:23;;;;;;;16.58;5.03;;;;;;;17.20;100.00;101430.38;2085732;28;20053;-72
2022/11/09 04:28:46;;;;;;;15.60;4.10;;;;;;;17.22;100.00;101433.06;2091140;28;20109;-72
2022/11/09 04:30:09;;;;;;;13.57;3.50;;;;;;;17.22;100.00;101430.38;2085489;28;20053;-72
2022/11/09 04:31:32;;;;;;;12.38;3.95;;;;;;;17.22;100.00;101431.28;2083207;28;20110;-73
2022/11/09 04:32:55;;;;;;;11.80;3.38;;;;;;;17.21;100.00;101432.16;2091392;28;20041;-71
2022/11/09 04:34:17;;;;;;;14.13;3.63;;;;;;;17.21;100.00;101440.19;2093672;28;20113;-72
2022/11/09 04:35:40;;;;;;;10.20;3.40;;;;;;;17.19;100.00;101428.63;2093876;28;20139;-72
2022/11/09 04:37:04;;;;;;;15.35;3.92;;;;;;;17.19;100.00;101436.66;2095959;28;20040;-72
2022/11/09 04:38:26;;;;;;;12.07;3.67;;;;;;;17.17;100.00;101435.75;2101947;28;20147;-72
2022/11/09 04:39:49;;;;;;;12.23;3.78;;;;;;;17.16;100.00;101438.41;2102011;28;20025;-72
2022/11/09 04:41:11;;;;;;;12.70;4.20;;;;;;;17.15;100.00;101432.19;2096396;28;20056;-72
2022/11/09 04:42:33;;;;;;;11.52;3.55;;;;;;;17.17;100.00;101434.84;2099468;28;20164;-72
2022/11/09 04:43:56;;;;;;;13.55;3.45;;;;;;;17.19;100.00;101439.31;2102305;28;20044;-72
2022/11/09 04:45:19;;;;;;;13.40;3.38;;;;;;;17.19;100.00;101428.63;2102407;28;20556;-72
2022/11/09 04:46:41;;;;;;;15.98;3.63;;;;;;;17.17;100.00;101430.41;2093528;28;20576;-72
2022/11/09 04:48:05;;;;;;;11.00;3.63;;;;;;;17.17;100.00;101424.19;2099443;28;20063;-73
2022/11/09 04:49:27;;;;;;;10.60;3.85;;;;;;;17.14;100.00;101435.72;2093749;28;20056;-71
2022/11/09 04:50:50;;;;;;;13.98;3.85;;;;;;;17.10;100.00;101439.31;2099404;28;20595;-72
2022/11/09 04:52:14;;;;;;;15.65;4.05;;;;;;;17.05;100.00;101431.31;2097270;28;20143;-72
2022/11/09 04:53:37;;;;;;;14.60;3.38;;;;;;;16.99;100.00;101443.75;2085414;28;20057;-70
2022/11/09 04:55:00;;;;;;;11.88;3.63;;;;;;;16.96;100.00;101436.63;2091330;28;20040;-71
2022/11/09 04:56:23;;;;;;;14.73;3.75;;;;;;;16.95;100.00;101449.97;2093928;28;20044;-72
2022/11/09 04:57:44;;;;;;;15.43;4.13;;;;;;;16.93;100.00;101452.66;2100436;28;20056;-72
2022/11/09 04:59:06;;;;;;;14.73;3.92;;;;;;;16.91;100.00;101450.84;2087973;28;20053;-71
2022/11/09 05:00:28;;;;;;;12.40;4.22;;;;;;;16.89;100.00;101457.97;2081551;28;20055;-71
2022/11/09 05:01:50;;;;;;;15.02;4.35;;;;;;;16.87;100.00;101452.63;2090132;28;20129;-71
2022/11/09 05:03:13;;;;;;;11.80;3.78;;;;;;;16.87;100.00;101454.44;2098617;28;20130;-71
2022/11/09 05:04:35;;;;;;;11.98;3.58;;;;;;;16.85;100.00;101464.19;2095261;28;20544;-72
2022/11/09 05:05:57;;;;;;;14.38;3.85;;;;;;;16.85;100.00;101461.53;2087091;28;20149;-72
2022/11/09 05:07:21;;;;;;;18.50;3.75;;;;;;;16.86;100.00;101456.19;2092350;28;20048;-72
2022/11/09 05:08:43;;;;;;;14.50;3.80;;;;;;;16.89;100.00;101463.28;2087099;28;20127;-72
2022/11/09 05:10:05;;;;;;;15.50;4.05;;;;;;;16.90;100.00;101470.41;2085954;28;20126;-72
2022/11/09 05:11:27;;;;;;;;;;;;;;;16.87;100.00;101471.28;2092614;28;20151;-71
2022/11/09 05:12:49;;;;;;;16.92;3.53;;;;;;;16.86;100.00;101472.19;2095277;28;19920;-72
2022/11/09 05:14:12;;;;;;;15.25;4.43;;;;;;;16.85;100.00;101467.75;2100633;28;20147;-72
2022/11/09 05:15:34;;;;;;;16.23;4.43;;;;;;;16.85;100.00;101462.41;2095382;28;20500;-71
2022/11/09 05:16:56;;;;;;;23.17;6.45;;;;;;;16.84;100.00;101465.97;2100923;28;20143;-72
2022/11/09 05:18:19;;;;;;;19.00;4.47;;;;;;;16.84;100.00;101449.97;2103396;28;20040;-71
2022/11/09 05:19:42;;;;;;;13.77;4.18;;;;;;;16.88;100.00;101454.41;2103618;28;20595;-72
2022/11/09 05:21:04;;;;;;;16.23;4.05;;;;;;;16.93;100.00;101462.44;2095119;28;20064;-71
2022/11/09 05:24:07;;;;;;;13.70;4.38;;;;;;;16.99;100.00;101462.44;2089102;28;20111;-71
2022/11/09 05:25:30;;;;;;;19.92;4.00;;;;;;;17.00;100.00;101459.75;2087096;28;20075;-72
2022/11/09 05:26:54;;;;;;;16.00;3.97;;;;;;;17.06;100.00;101469.56;2078597;28;20095;-71
2022/11/09 05:28:16;;;;;;;18.42;4.28;;;;;;;17.11;100.00;101473.09;2084463;28;20136;-72
2022/11/09 05:29:38;;;;;;;11.13;4.05;;;;;;;17.13;100.00;101474.88;2095252;28;20044;-71
2022/11/09 05:31:00;;;;;;;12.93;3.90;;;;;;;17.15;100.00;101469.53;2081120;28;20166;-71
2022/11/09 05:32:23;;;;;;;16.45;4.05;;;;;;;17.17;100.00;101478.44;2092342;28;20078;-72
2022/11/09 05:33:48;;;;;;;14.43;4.32;;;;;;;17.21;100.00;101477.53;2089485;28;20076;-72
2022/11/09 05:35:10;;;;;;;18.13;4.07;;;;;;;17.24;100.00;101485.56;2078704;28;20041;-72
2022/11/09 05:36:33;;;;;;;15.43;4.40;;;;;;;17.28;100.00;101475.75;2084350;28;20053;-71
2022/11/09 05:37:56;;;;;;;15.85;4.20;;;;;;;17.30;100.00;101484.66;2086942;28;20179;-72
2022/11/09 05:39:18;;;;;;;14.18;3.65;;;;;;;17.27;100.00;101477.53;2086736;28;20052;-72
2022/11/09 05:40:39;;;;;;;19.23;4.05;;;;;;;17.26;100.00;101483.78;2078396;28;20141;-71
2022/11/09 05:42:02;;;;;;;13.98;3.33;;;;;;;17.27;100.00;101479.31;2084125;28;20135;-72
2022/11/09 05:43:23;;;;;;;15.05;3.92;;;;;;;17.29;100.00;101482.88;2086675;28;20468;-72
2022/11/09 05:44:46;;;;;;;18.00;4.63;;;;;;;17.32;100.00;101482.88;2089888;28;20087;-72
2022/11/09 05:46:08;;;;;;;16.58;3.63;;;;;;;17.37;100.00;101489.09;2095215;28;20795;-72
2022/11/09 05:47:30;;;;;;;18.63;5.30;;;;;;;17.40;100.00;101489.97;2103401;28;20143;-71
2022/11/09 05:48:52;;;;;;;11.85;4.95;;;;;;;17.46;100.00;101486.41;2103254;28;20089;-72
2022/11/09 05:50:15;;;;;;;13.27;3.70;;;;;;;17.51;100.00;101490.00;2103483;28;20058;-73
2022/11/09 05:51:45;;;;;;;15.82;4.05;;;;;;;17.53;100.00;101489.06;2104528;28;20122;-72
2022/11/09 05:53:10;;;;;;;16.55;4.35;;;;;;;17.54;100.00;101490.88;2103432;28;20059;-72
2022/11/09 05:54:32;;;;;;;15.57;4.20;;;;;;;17.53;100.00;101486.41;2095346;28;20093;-72
2022/11/09 05:55:55;;;;;;;15.25;3.83;;;;;;;17.56;100.00;101492.66;2100728;28;20048;-71
2022/11/09 05:57:17;;;;;;;13.27;3.88;;;;;;;17.58;100.00;101497.09;2103414;28;20116;-72
2022/11/09 05:58:40;;;;;;;14.65;4.00;;;;;;;17.62;100.00;101498.00;2103005;28;20469;-71
2022/11/09 06:00:03;;;;;;;11.05;3.53;;;;;;;17.62;100.00;101498.00;2103406;28;20056;-72
2022/11/09 06:01:35;;;;;;;12.55;3.63;;;;;;;17.59;100.00;101503.34;2103666;28;20044;-73
2022/11/09 06:03:01;;;;;;;12.65;3.33;;;;;;;17.59;100.00;101508.69;2086703;28;20098;-73
2022/11/09 06:04:23;;;;;;;11.52;3.15;;;;;;;17.62;100.00;101498.91;2092812;28;20047;-72
2022/11/09 06:05:46;;;;;;;13.25;3.83;;;;;;;17.74;100.00;101498.88;2089106;28;20584;-74
2022/11/09 06:07:08;;;;;;;12.77;3.50;;;;;;;17.87;100.00;101500.63;2087563;28;20057;-73
2022/11/09 06:08:32;;;;;;;14.15;3.50;;;;;;;18.00;100.00;101500.59;2086542;28;20052;-73
2022/11/09 06:09:53;;;;;;;10.85;3.25;;;;;;;18.01;100.00;101500.59;2078495;28;20479;-73
2022/11/09 06:11:16;;;;;;;13.40;4.00;;;;;;;17.97;100.00;101493.50;2092018;28;20500;-73
2022/11/09 06:12:38;;;;;;;11.55;3.10;;;;;;;17.94;100.00;101493.47;2097368;28;20091;-73
2022/11/09 06:14:01;;;;;;;9.15;2.53;;;;;;;17.95;100.00;101497.94;2089023;28;20458;-73
2022/11/09 06:15:23;;;;;;;12.82;3.35;;;;;;;17.99;100.00;101497.03;2094587;28;20071;-73
2022/11/09 06:16:45;;;;;;;;;;;;;;;17.99;100.00;101497.03;2089633;28;20834;-73
2022/11/09 06:18:06;;;;;;;13.32;3.80;;;;;;;18.07;100.00;101503.25;2087321;28;19927;-72
2022/11/09 06:19:29;;;;;;;12.70;3.00;;;;;;;18.19;100.00;101500.53;2102737;28;20058;-72
2022/11/09 06:20:53;;;;;;;15.75;4.05;;;;;;;18.27;100.00;101508.50;2096959;28;20095;-73